Rancho Park, California
Current Conditions -  °F | °C
As of 11:51 AM on Wednesday 26 Nov 2014 (Local Time) from KSMO Reporting Station
Clear Clear  
Wind Chill: 78°   Ceiling: Unl
Heat Index: 78°   Visibility: 10mi
Dew Point: 20°   Wind: 6mph
Humidity: 11%   Direction: 240°WSW
Pressure: 30.19"   Gusts: NA
Location:  34.0365°N, 118.425°W
Report Text: KSMO 261951Z 24005KT 10SM CLR 26/M07 A3019 RMK AO2 SLP221 T02561067
Loading
Personal Weather Stations






























Interactive Weather Map New forecast layout! Learn more

10-Day Weather Forecast

Advertisements
Track Severe Weather on mobile